Time;durP1;ratioP1;P1;durP2;ratioP2;P2;SDS_P1;SDS_P2;PMS_P1;PMS_P2;Temp;Humidity;BMP_temperature;BMP_pressure;BME280_temperature;BME280_humidity;BME280_pressure;Samples;Min_cycle;Max_cycle;Signal;HPM_P1;HPM_P2
2023/07/17 00:00:21;;;;;;;11.02;4.00;;;;;;;-144.73;91.04;54317.38;5051904;28;20017;-72
2023/07/17 00:02:46;;;;;;;12.35;4.13;;;;;;;-144.73;90.81;54298.91;5033182;28;20075;-72
2023/07/17 00:05:12;;;;;;;8.48;4.43;;;;;;;-144.73;91.47;54300.97;5033701;28;20025;-72
2023/07/17 00:07:39;;;;;;;10.43;4.13;;;;;;;-144.73;90.15;54300.97;5032453;28;20040;-71
2023/07/17 00:10:06;;;;;;;10.40;4.72;;;;;;;-144.73;88.69;54290.72;5033420;28;20027;-72
2023/07/17 00:12:32;;;;;;;8.05;3.95;;;;;;;-144.73;89.79;54278.41;5032616;28;20526;-71
2023/07/17 00:14:57;;;;;;;7.72;4.00;;;;;;;-144.73;89.84;54276.34;5033018;28;20021;-72
2023/07/17 00:17:22;;;;;;;19.38;4.68;;;;;;;-144.73;89.19;54307.13;5049272;28;20033;-72
2023/07/17 00:19:55;;;;;;;12.90;4.47;;;;;;;-144.73;88.64;54296.88;5033820;28;20024;-72
2023/07/17 00:22:22;;;;;;;10.68;3.90;;;;;;;-144.73;88.18;54317.38;5050781;28;20043;-72
2023/07/17 00:24:49;;;;;;;11.27;4.50;;;;;;;-144.73;89.09;54362.53;5032748;28;20039;-72
2023/07/17 00:27:15;;;;;;;9.55;4.50;;;;;;;-144.73;88.83;54296.88;5033050;28;20025;-71
2023/07/17 00:29:40;;;;;;;8.30;4.32;;;;;;;-144.73;90.16;54313.28;5033539;28;20029;-72
2023/07/17 00:32:06;;;;;;;9.77;3.83;;;;;;;-144.73;89.56;54300.97;5051657;28;20036;-71
2023/07/17 00:34:32;;;;;;;8.48;4.07;;;;;;;-144.73;88.25;54305.06;5032228;28;20071;-72
2023/07/17 00:36:57;;;;;;;13.15;4.72;;;;;;;-144.73;88.10;54247.59;5033189;28;20025;-72
2023/07/17 00:39:23;;;;;;;9.82;4.22;;;;;;;-144.73;88.38;54276.34;5015571;28;20033;-72
2023/07/17 00:41:50;;;;;;;8.52;4.25;;;;;;;-144.73;87.92;54276.34;5051230;28;20028;-71
2023/07/17 00:44:16;;;;;;;8.45;4.07;;;;;;;-144.73;88.21;54284.56;5050192;28;20029;-72
2023/07/17 00:46:41;;;;;;;8.00;4.35;;;;;;;-144.73;90.47;54305.06;5050596;28;20027;-72
2023/07/17 00:49:08;;;;;;;8.93;4.32;;;;;;;-144.73;92.25;54284.56;5032638;28;20028;-71
2023/07/17 00:51:35;;;;;;;8.95;5.05;;;;;;;-144.73;97.60;54300.97;5032910;28;20060;-71
2023/07/17 00:54:01;;;;;;;10.10;4.88;;;;;;;-144.73;99.03;54255.81;5032780;28;20082;-72
2023/07/17 00:56:29;;;;;;;9.55;4.88;;;;;;;-144.73;100.00;54317.38;5050716;28;20123;-72
2023/07/17 00:58:56;;;;;;;11.32;4.78;;;;;;;-144.73;100.00;54329.72;5050061;28;20044;-72
2023/07/17 01:01:21;;;;;;;9.40;4.65;;;;;;;-144.73;100.00;54333.81;5050679;28;20077;-72
2023/07/17 01:03:51;;;;;;;14.30;4.78;;;;;;;-144.73;100.00;54337.91;5032657;28;20094;-72
2023/07/17 01:06:16;;;;;;;12.20;4.50;;;;;;;-144.73;100.00;54288.66;5050427;28;20021;-72
2023/07/17 01:08:42;;;;;;;14.90;5.15;;;;;;;-144.73;100.00;54300.97;5034286;28;20025;-72
2023/07/17 01:11:08;;;;;;;12.73;5.03;;;;;;;-144.73;100.00;54305.06;5054833;28;20021;-72
2023/07/17 01:13:43;;;;;;;8.65;4.10;;;;;;;-144.73;100.00;54282.50;5052831;28;20043;-72
2023/07/17 01:16:08;;;;;;;11.90;5.13;;;;;;;-144.73;100.00;54309.19;5036702;28;20032;-71
2023/07/17 01:18:33;;;;;;;12.55;4.60;;;;;;;-144.73;100.00;54327.66;5053982;28;20029;-72
2023/07/17 01:20:59;;;;;;;10.38;5.32;;;;;;;-144.73;100.00;54276.34;5036348;28;20020;-72
2023/07/17 01:23:24;;;;;;;12.52;5.32;;;;;;;-144.73;100.00;54333.81;5053607;28;20037;-72
2023/07/17 01:25:49;;;;;;;10.20;4.93;;;;;;;-144.73;100.00;54313.28;5036645;28;20048;-72
2023/07/17 01:28:15;;;;;;;12.30;5.53;;;;;;;-144.73;100.00;54303.03;5053638;28;20033;-71
2023/07/17 01:30:40;;;;;;;8.18;4.60;;;;;;;-144.73;100.00;54362.53;5037008;28;20127;-72
2023/07/17 01:33:05;;;;;;;12.30;5.55;;;;;;;-144.73;100.00;54315.34;5035403;28;20055;-72
2023/07/17 01:35:31;;;;;;;11.35;4.78;;;;;;;-144.73;100.00;54323.53;5036395;28;20399;-72
2023/07/17 01:37:56;;;;;;;9.80;4.85;;;;;;;-144.73;100.00;54325.59;5035382;28;20029;-71
2023/07/17 01:40:21;;;;;;;9.57;5.07;;;;;;;-144.73;100.00;54300.97;5034286;28;20450;-72
2023/07/17 01:42:47;;;;;;;10.32;4.75;;;;;;;-144.73;100.00;54309.19;5035700;28;20090;-72
2023/07/17 01:45:12;;;;;;;9.27;5.28;;;;;;;-144.73;100.00;54327.66;5054045;28;20021;-72
2023/07/17 01:47:37;;;;;;;9.40;4.85;;;;;;;-144.73;100.00;54298.91;5053356;28;20044;-74
2023/07/17 01:50:03;;;;;;;12.75;5.50;;;;;;;-144.73;100.00;54317.38;5054042;28;20025;-72
2023/07/17 01:52:29;;;;;;;19.30;5.50;;;;;;;-144.73;100.00;54346.13;5035124;28;20037;-71
2023/07/17 01:54:55;;;;;;;9.90;4.63;;;;;;;-144.73;100.00;54321.50;5035864;28;20129;-72
2023/07/17 01:57:20;;;;;;;10.65;5.03;;;;;;;-144.73;100.00;54296.88;5035301;28;20487;-72
2023/07/17 01:59:45;;;;;;;12.25;5.22;;;;;;;-144.73;100.00;54298.91;5053550;28;20035;-72
2023/07/17 02:02:11;;;;;;;8.88;4.65;;;;;;;-144.73;100.00;54333.81;5053158;28;20108;-71
2023/07/17 02:04:36;;;;;;;21.00;5.05;;;;;;;-144.73;100.00;54321.50;5052769;28;20033;-71
2023/07/17 02:07:01;;;;;;;10.07;4.85;;;;;;;-144.73;100.00;54337.91;5036013;28;20113;-71
2023/07/17 02:09:27;;;;;;;9.25;4.85;;;;;;;-144.73;100.00;54321.50;5034979;28;20042;-71
2023/07/17 02:11:52;;;;;;;10.20;5.55;;;;;;;-144.73;100.00;54296.88;5052972;28;20053;-72
2023/07/17 02:14:17;;;;;;;8.82;4.60;;;;;;;-144.73;100.00;54321.50;5040679;28;20389;-72
2023/07/17 02:16:43;;;;;;;11.27;5.05;;;;;;;-144.73;100.00;54317.38;5050968;28;20052;-72
2023/07/17 02:19:08;;;;;;;11.05;5.15;;;;;;;-144.73;100.00;54303.03;5051657;28;20033;-70
2023/07/17 02:21:33;;;;;;;8.25;4.65;;;;;;;-144.73;100.00;54337.91;5035543;28;20037;-70
2023/07/17 02:23:59;;;;;;;15.15;5.88;;;;;;;-144.73;100.00;54303.03;5052825;28;20047;-71
2023/07/17 02:26:25;;;;;;;10.55;4.90;;;;;;;-144.73;100.00;54327.66;5052857;28;20017;-70
2023/07/17 02:28:50;;;;;;;6.85;4.22;;;;;;;-144.73;100.00;54362.53;5051158;28;20102;-71
2023/07/17 02:31:16;;;;;;;13.63;4.85;;;;;;;-144.73;100.00;54321.50;5035730;28;20025;-71
2023/07/17 02:33:41;;;;;;;7.90;4.38;;;;;;;-144.73;100.00;54362.53;5034808;28;20120;-71
2023/07/17 02:36:07;;;;;;;7.28;4.40;;;;;;;-144.73;100.00;54321.50;5029384;28;20033;-71
2023/07/17 02:38:32;;;;;;;8.25;3.95;;;;;;;-144.73;100.00;54300.97;5066216;28;20044;-71
2023/07/17 02:40:57;;;;;;;11.02;4.85;;;;;;;-144.73;100.00;54329.72;5035643;28;20081;-71
2023/07/17 02:43:23;;;;;;;12.48;5.28;;;;;;;-144.73;100.00;54358.44;5034299;28;20119;-71
2023/07/17 02:45:48;;;;;;;10.32;4.82;;;;;;;-144.73;100.00;54276.34;5035224;28;20044;-71
2023/07/17 02:48:14;;;;;;;13.20;5.15;;;;;;;-144.73;100.00;54292.75;5052015;28;20033;-71
2023/07/17 02:50:39;;;;;;;8.95;4.88;;;;;;;-144.73;100.00;54354.34;5028619;28;20017;-72
2023/07/17 02:53:05;;;;;;;13.00;5.35;;;;;;;-144.73;100.00;54300.97;5033271;28;20086;-71
2023/07/17 02:55:30;;;;;;;9.52;4.93;;;;;;;-144.73;100.00;54374.84;5050179;28;20036;-71
2023/07/17 02:57:55;;;;;;;12.32;5.97;;;;;;;-144.73;100.00;54337.91;5032819;28;20052;-71
2023/07/17 03:00:21;;;;;;;15.02;5.28;;;;;;;-144.73;100.00;54309.19;5028373;28;20434;-71
2023/07/17 03:02:48;;;;;;;12.77;5.00;;;;;;;-144.73;100.00;54309.19;5032490;28;20037;-71
2023/07/17 03:05:14;;;;;;;10.90;4.88;;;;;;;-144.73;100.00;54321.50;5050072;28;20017;-71
2023/07/17 03:07:42;;;;;;;9.13;4.82;;;;;;;-144.73;100.00;54313.28;5027420;28;20048;-71
2023/07/17 03:10:08;;;;;;;7.03;4.00;;;;;;;-144.73;100.00;54329.72;5051666;28;20044;-71
2023/07/17 03:12:34;;;;;;;9.07;5.07;;;;;;;-144.73;100.00;54303.03;5023428;28;20075;-71
2023/07/17 03:14:59;;;;;;;12.88;4.57;;;;;;;-144.73;100.00;54337.91;5033416;28;20021;-72
2023/07/17 03:17:25;;;;;;;8.23;4.97;;;;;;;-144.73;100.00;54329.72;5032290;28;20108;-72
2023/07/17 03:19:53;;;;;;;13.70;4.97;;;;;;;-144.73;100.00;54276.34;5049882;28;20350;-72
2023/07/17 03:22:18;;;;;;;8.10;5.00;;;;;;;-144.73;100.00;54346.13;5050414;28;20018;-72
2023/07/17 03:24:44;;;;;;;10.25;5.55;;;;;;;-144.73;100.00;54321.50;5030720;28;20108;-71
2023/07/17 03:27:09;;;;;;;16.75;5.10;;;;;;;-144.73;100.00;54342.03;5032601;28;20020;-71
2023/07/17 03:29:35;;;;;;;11.20;4.45;;;;;;;-144.73;100.00;54296.88;5031391;28;20021;-72
2023/07/17 03:32:00;;;;;;;14.85;5.18;;;;;;;-144.73;100.00;54305.06;5064537;28;20028;-72
2023/07/17 03:34:26;;;;;;;12.75;4.43;;;;;;;-144.73;100.00;54346.13;5043205;28;20040;-71
2023/07/17 03:36:52;;;;;;;9.10;4.10;;;;;;;-144.73;100.00;54329.72;5051574;28;20032;-72
2023/07/17 03:39:17;;;;;;;11.75;5.30;;;;;;;-144.73;100.00;54305.06;5032834;28;20029;-72
2023/07/17 03:41:43;;;;;;;14.77;4.60;;;;;;;-144.73;100.00;54296.88;5050967;28;20017;-72
2023/07/17 03:44:08;;;;;;;13.60;5.20;;;;;;;-144.73;100.00;54321.50;5031512;28;20025;-72
2023/07/17 03:46:33;;;;;;;13.65;4.20;;;;;;;-144.73;100.00;54335.88;5050313;28;20565;-72
2023/07/17 03:48:59;;;;;;;11.73;4.85;;;;;;;-144.73;100.00;54311.22;5032021;28;20040;-72
2023/07/17 03:51:24;;;;;;;13.65;5.20;;;;;;;-144.73;100.00;54284.56;5050574;28;20021;-72
2023/07/17 03:53:52;;;;;;;12.00;5.13;;;;;;;-144.73;100.00;54276.34;5049670;28;20025;-72
2023/07/17 03:56:18;;;;;;;13.68;4.70;;;;;;;-144.73;100.00;54300.97;5050560;28;20115;-72
2023/07/17 03:58:45;;;;;;;11.05;4.30;;;;;;;-144.73;100.00;54325.59;5051248;28;20104;-72
2023/07/17 04:01:11;;;;;;;12.60;5.00;;;;;;;-144.73;100.00;54325.59;5050322;28;20029;-72
2023/07/17 04:03:37;;;;;;;11.23;5.30;;;;;;;-144.73;100.00;54346.13;5049116;28;20028;-72
2023/07/17 04:06:03;;;;;;;7.90;4.20;;;;;;;-144.73;100.00;54333.81;5032444;28;20500;-72
2023/07/17 04:08:28;;;;;;;13.98;5.03;;;;;;;-144.73;100.00;54321.50;5031315;28;20107;-72
2023/07/17 04:10:53;;;;;;;11.48;4.65;;;;;;;-144.73;100.00;54362.53;5050126;28;20040;-73
2023/07/17 04:13:18;;;;;;;11.30;4.95;;;;;;;-144.73;100.00;54305.06;5031625;28;20036;-72
2023/07/17 04:15:44;;;;;;;17.20;4.63;;;;;;;-144.73;98.02;54321.50;5031826;28;20029;-73
2023/07/17 04:18:09;;;;;;;12.07;4.22;;;;;;;-144.73;98.83;54321.50;5031581;28;20047;-72
2023/07/17 04:20:39;;;;;;;8.45;4.00;;;;;;;-144.73;97.29;54288.66;5032377;28;20033;-72
2023/07/17 04:23:05;;;;;;;14.85;3.80;;;;;;;-144.73;95.34;54300.97;5048821;28;20029;-72
2023/07/17 04:25:30;;;;;;;13.90;4.60;;;;;;;-144.73;95.04;54319.44;5030733;28;20426;-72
2023/07/17 04:27:56;;;;;;;11.02;4.22;;;;;;;-144.73;95.99;54333.81;5044830;28;20025;-72
2023/07/17 04:30:22;;;;;;;10.55;4.28;;;;;;;-144.73;95.52;54315.34;5030135;28;20044;-72
2023/07/17 04:32:47;;;;;;;10.15;4.57;;;;;;;-144.73;93.97;54325.59;5046094;28;20105;-72
2023/07/17 04:35:12;;;;;;;8.48;3.88;;;;;;;-144.73;91.94;54333.81;5049452;28;20041;-72
2023/07/17 04:37:38;;;;;;;12.75;4.43;;;;;;;-144.73;93.88;54300.97;5031466;28;20094;-71
2023/07/17 04:40:05;;;;;;;15.13;5.05;;;;;;;-144.73;92.73;54292.75;5048211;28;20059;-71
2023/07/17 04:42:30;;;;;;;10.50;4.60;;;;;;;-144.73;94.79;54288.66;5048416;28;20029;-71
2023/07/17 04:44:55;;;;;;;9.63;4.47;;;;;;;-144.73;94.76;54337.91;5031130;28;20025;-71
2023/07/17 04:47:21;;;;;;;11.27;5.00;;;;;;;-144.73;93.60;54333.81;5049253;28;20044;-71
2023/07/17 04:49:46;;;;;;;12.73;4.30;;;;;;;-144.73;93.69;54313.28;5031992;28;20060;-72
2023/07/17 04:52:11;;;;;;;13.07;4.65;;;;;;;-144.73;91.86;54333.81;5027256;28;20029;-71
2023/07/17 04:54:37;;;;;;;12.40;4.43;;;;;;;-144.73;93.62;54313.28;5047910;28;20092;-71
2023/07/17 04:57:03;;;;;;;10.60;4.25;;;;;;;-144.73;94.02;54317.38;5026937;28;20079;-71
2023/07/17 04:59:29;;;;;;;11.32;4.40;;;;;;;-144.73;95.02;54329.72;5031014;28;20037;-72
2023/07/17 05:01:54;;;;;;;10.75;4.75;;;;;;;-144.73;95.70;54346.13;5048941;28;20083;-72
2023/07/17 05:04:20;;;;;;;10.00;4.20;;;;;;;-144.73;96.53;54329.72;5048921;28;20029;-72
2023/07/17 05:06:45;;;;;;;9.43;4.45;;;;;;;-144.73;96.32;54309.19;5049627;28;20067;-72
2023/07/17 05:09:10;;;;;;;11.35;4.90;;;;;;;-144.73;96.80;54317.38;5048628;28;20045;-72
2023/07/17 05:11:36;;;;;;;14.73;4.97;;;;;;;-144.73;98.76;54346.13;5049576;28;20021;-72
2023/07/17 05:14:01;;;;;;;14.55;4.50;;;;;;;-144.73;98.13;54284.56;5033084;28;20037;-72
2023/07/17 05:16:27;;;;;;;11.90;4.53;;;;;;;-144.73;96.74;54350.22;5031471;28;20087;-72
2023/07/17 05:18:52;;;;;;;13.70;4.82;;;;;;;-144.73;94.86;54296.88;5030900;28;20075;-72
2023/07/17 05:21:17;;;;;;;9.45;4.30;;;;;;;-144.73;94.93;54342.03;5049923;28;20025;-72
2023/07/17 05:23:43;;;;;;;10.32;4.88;;;;;;;-144.73;98.03;54276.34;5046603;28;20022;-72
2023/07/17 05:26:08;;;;;;;11.60;5.18;;;;;;;-144.73;96.60;54358.44;5031543;28;20021;-72
2023/07/17 05:28:34;;;;;;;9.13;4.28;;;;;;;-144.73;99.43;54288.66;5030647;28;20029;-73
2023/07/17 05:30:59;;;;;;;19.42;5.30;;;;;;;-144.73;98.95;54309.19;5031600;28;20111;-72
2023/07/17 05:33:25;;;;;;;13.55;4.70;;;;;;;-144.73;100.00;54354.34;5048534;28;20033;-73
2023/07/17 05:35:51;;;;;;;11.35;4.60;;;;;;;-144.73;100.00;54319.44;5031074;28;20116;-72
2023/07/17 05:38:17;;;;;;;17.52;4.60;;;;;;;-144.73;100.00;54305.06;5030117;28;20044;-72
2023/07/17 05:40:43;;;;;;;11.35;4.75;;;;;;;-144.73;100.00;54313.28;5031401;28;20017;-72
2023/07/17 05:43:09;;;;;;;12.48;4.18;;;;;;;-144.73;100.00;54313.28;5030208;28;20033;-71
2023/07/17 05:45:35;;;;;;;14.70;5.25;;;;;;;-144.73;100.00;54346.13;5048650;28;20113;-71
2023/07/17 05:48:00;;;;;;;14.68;4.70;;;;;;;-144.73;100.00;54317.38;5026164;28;20098;-71
2023/07/17 05:50:26;;;;;;;20.63;5.25;;;;;;;-144.73;99.61;54370.75;5026777;28;20017;-73
2023/07/17 05:52:51;;;;;;;18.63;4.53;;;;;;;-144.73;97.67;54309.19;5022409;28;20037;-73
2023/07/17 05:55:17;;;;;;;13.77;4.78;;;;;;;-144.73;94.95;54329.72;5044248;28;20028;-72
2023/07/17 05:57:42;;;;;;;17.27;5.25;;;;;;;-144.73;95.85;54342.03;5034267;28;20033;-73
2023/07/17 06:00:11;;;;;;;23.60;5.43;;;;;;;-144.73;96.34;54342.03;5037163;28;20067;-72
2023/07/17 06:02:36;;;;;;;15.23;4.82;;;;;;;-144.73;96.21;54313.28;5034927;28;20033;-72
2023/07/17 06:05:02;;;;;;;14.07;5.30;;;;;;;-144.73;98.82;54323.53;5034304;28;20036;-71
2023/07/17 06:07:29;;;;;;;16.08;5.30;;;;;;;-144.73;100.00;54325.59;5034252;28;20036;-72
2023/07/17 06:09:54;;;;;;;14.00;5.43;;;;;;;-144.73;100.00;54317.38;5034405;28;20102;-72
2023/07/17 06:12:19;;;;;;;11.30;4.43;;;;;;;-144.73;100.00;54317.38;5033423;28;20051;-72
2023/07/17 06:14:45;;;;;;;23.33;5.38;;;;;;;-144.73;100.00;54313.28;5034160;28;20051;-72
2023/07/17 06:17:10;;;;;;;14.82;4.68;;;;;;;-144.73;100.00;54331.75;5034273;28;20025;-72
2023/07/17 06:19:36;;;;;;;12.50;4.75;;;;;;;-144.73;99.39;54311.22;5052660;28;20533;-72
2023/07/17 06:22:01;;;;;;;11.73;4.95;;;;;;;-144.73;100.00;54300.97;5035031;28;20075;-72
2023/07/17 06:24:26;;;;;;;12.48;4.55;;;;;;;-144.73;99.59;54292.75;5032726;28;20063;-72
2023/07/17 06:26:52;;;;;;;16.88;5.30;;;;;;;-144.73;100.00;54354.34;5047927;28;20013;-72
2023/07/17 06:29:17;;;;;;;11.13;4.25;;;;;;;-144.73;99.57;54366.66;5043164;28;20075;-71
2023/07/17 06:31:43;;;;;;;11.70;4.13;;;;;;;-144.73;96.15;54317.38;5052104;28;20029;-73
2023/07/17 06:34:08;;;;;;;15.95;4.85;;;;;;;-144.73;95.82;54313.28;5030138;28;20041;-71
2023/07/17 06:36:33;;;;;;;14.68;4.63;;;;;;;-144.73;94.19;54368.69;5050591;28;20025;-72
2023/07/17 06:38:59;;;;;;;14.82;4.40;;;;;;;-144.73;95.11;54346.13;5032576;28;20372;-71
2023/07/17 06:41:24;;;;;;;12.98;4.65;;;;;;;-144.73;93.97;54296.88;5033365;28;20035;-71
2023/07/17 06:43:49;;;;;;;12.60;4.90;;;;;;;-144.73;94.99;54317.38;5050265;28;20041;-71
2023/07/17 06:46:16;;;;;;;10.45;4.55;;;;;;;-144.73;95.44;54231.19;5034205;28;20063;-72
2023/07/17 06:48:41;;;;;;;18.90;4.75;;;;;;;-144.73;91.91;54333.81;5032594;28;20040;-72
2023/07/17 06:51:07;;;;;;;13.68;4.93;;;;;;;-144.73;95.31;54333.81;5051355;28;20020;-71
2023/07/17 06:53:32;;;;;;;18.25;5.22;;;;;;;-144.73;94.55;54317.38;5050139;28;20119;-71
2023/07/17 06:55:59;;;;;;;25.30;4.93;;;;;;;-144.73;95.01;54344.06;5031960;28;20119;-71
2023/07/17 06:58:25;;;;;;;13.23;4.60;;;;;;;-144.73;96.23;54315.34;5048470;28;20032;-72
2023/07/17 07:00:58;;;;;;;14.43;5.07;;;;;;;-144.73;97.34;54276.34;5031825;28;20021;-72
2023/07/17 07:03:26;;;;;;;15.50;4.95;;;;;;;-144.73;96.93;54333.81;5049645;28;20423;-72
2023/07/17 07:06:00;;;;;;;13.43;5.25;;;;;;;-144.73;95.05;54309.19;5051116;28;20143;-73
2023/07/17 07:08:28;;;;;;;17.60;4.82;;;;;;;-144.73;98.75;54337.91;5032485;28;20032;-71
2023/07/17 07:10:55;;;;;;;20.45;4.80;;;;;;;-144.73;96.84;54307.13;5033196;28;20032;-71
2023/07/17 07:13:20;;;;;;;14.27;4.78;;;;;;;-144.73;96.42;54339.97;5045999;28;20029;-71
2023/07/17 07:15:47;;;;;;;20.80;4.90;;;;;;;-144.73;97.72;54329.72;5034983;28;20387;-71
2023/07/17 07:18:12;;;;;;;14.40;4.78;;;;;;;-144.73;96.81;54288.66;5034439;28;20039;-71
2023/07/17 07:20:38;;;;;;;9.70;4.88;;;;;;;-144.73;96.12;54321.50;5034074;28;20025;-72
2023/07/17 07:23:03;;;;;;;11.38;4.53;;;;;;;-144.73;95.55;54325.59;5033027;28;20033;-73
2023/07/17 07:25:29;;;;;;;12.98;4.50;;;;;;;-144.73;94.03;54339.97;5050930;28;20040;-73
2023/07/17 07:27:54;;;;;;;17.65;5.10;;;;;;;-144.73;95.84;54348.19;5033610;28;20056;-72
2023/07/17 07:30:20;;;;;;;12.68;5.40;;;;;;;-144.73;95.52;54333.81;5033240;28;20029;-72
2023/07/17 07:32:46;;;;;;;15.15;4.63;;;;;;;-144.73;94.95;54321.50;5051575;28;20029;-73
2023/07/17 07:35:12;;;;;;;17.17;4.50;;;;;;;-144.73;92.94;54290.72;5032830;28;20044;-72
2023/07/17 07:37:39;;;;;;;14.93;5.10;;;;;;;-144.73;93.54;54276.34;5032474;28;20029;-72
2023/07/17 07:40:06;;;;;;;16.70;5.68;;;;;;;-144.73;93.42;54303.03;5034021;28;20041;-72
2023/07/17 07:42:32;;;;;;;12.13;5.00;;;;;;;-144.73;94.19;54333.81;5033579;28;20029;-72
2023/07/17 07:44:58;;;;;;;16.30;5.00;;;;;;;-144.73;90.97;54280.44;5051817;28;20039;-74
2023/07/17 07:47:23;;;;;;;15.30;5.20;;;;;;;-144.73;89.65;54292.75;5050961;28;20037;-72
2023/07/17 07:49:48;;;;;;;21.50;5.05;;;;;;;-144.73;86.34;54296.88;5059276;28;20029;-72
2023/07/17 07:52:14;;;;;;;16.17;4.80;;;;;;;-144.73;87.53;54358.44;5020137;28;20029;-72
2023/07/17 07:54:39;;;;;;;15.73;4.95;;;;;;;-144.73;86.81;54309.19;5033529;28;20016;-73
2023/07/17 07:57:05;;;;;;;17.67;4.13;;;;;;;-144.73;85.55;54268.13;5033019;28;20016;-72
2023/07/17 07:59:30;;;;;;;14.52;3.45;;;;;;;-144.73;82.85;54276.34;5050348;28;20082;-72
2023/07/17 08:01:55;;;;;;;16.55;4.22;;;;;;;-144.73;80.06;54342.03;5032412;28;20163;-72
2023/07/17 08:04:21;;;;;;;12.95;4.47;;;;;;;-144.73;80.13;54255.81;5031012;28;20091;-73
2023/07/17 08:06:46;;;;;;;13.05;4.13;;;;;;;-144.73;76.55;54257.88;5032311;28;20029;-73
2023/07/17 08:09:12;;;;;;;10.68;3.60;;;;;;;-144.73;78.23;54284.56;5040255;28;20041;-73
2023/07/17 08:11:38;;;;;;;11.70;4.18;;;;;;;-144.73;76.70;54300.97;5043164;28;20099;-72
2023/07/17 08:14:04;;;;;;;8.65;3.83;;;;;;;-144.73;77.52;54231.19;5049232;28;20119;-72
2023/07/17 08:16:30;;;;;;;12.70;4.25;;;;;;;-144.73;75.14;54309.19;5032012;28;20136;-72
2023/07/17 08:18:55;;;;;;;13.30;4.95;;;;;;;-144.73;75.59;54284.56;5031104;28;20051;-72
2023/07/17 08:21:20;;;;;;;11.18;3.80;;;;;;;-144.73;73.27;54329.72;5032300;28;20107;-73
2023/07/17 08:23:46;;;;;;;11.75;3.72;;;;;;;-144.73;72.26;54280.44;5047385;28;20488;-73
2023/07/17 08:26:12;;;;;;;13.57;3.55;;;;;;;-144.73;69.29;54288.66;5049952;28;20507;-72
2023/07/17 08:28:37;;;;;;;12.25;3.72;;;;;;;-144.73;67.74;54317.38;5030750;28;20036;-73
2023/07/17 08:31:03;;;;;;;11.95;3.53;;;;;;;-144.73;65.56;54292.75;5032294;28;20020;-72
2023/07/17 08:33:29;;;;;;;6.82;3.15;;;;;;;-144.73;64.93;54292.75;5049530;28;20041;-73
2023/07/17 08:35:54;;;;;;;11.80;3.20;;;;;;;-144.73;66.10;54251.72;5031704;28;20025;-72
2023/07/17 08:38:21;;;;;;;7.05;3.00;;;;;;;-144.73;65.80;54305.06;5031525;28;20049;-72
2023/07/17 08:40:53;;;;;;;11.35;3.58;;;;;;;-144.73;66.91;54290.72;5042853;28;20119;-72
2023/07/17 08:43:19;;;;;;;12.00;3.78;;;;;;;-144.73;65.69;54202.44;5047667;28;20103;-73
2023/07/17 08:45:46;;;;;;;11.57;3.65;;;;;;;-144.73;66.92;54276.34;5031560;28;20013;-72
2023/07/17 08:48:15;;;;;;;15.15;3.10;;;;;;;-144.73;65.07;54303.03;5049848;28;20033;-72
2023/07/17 08:50:41;;;;;;;10.05;4.03;;;;;;;-144.73;65.41;54210.66;5048053;28;20036;-72
2023/07/17 08:53:08;;;;;;;11.98;4.15;;;;;;;-144.73;64.84;54342.03;5031803;28;20109;-72
2023/07/17 08:55:35;;;;;;;12.10;3.40;;;;;;;-144.73;60.54;54251.72;5049071;28;20028;-71
2023/07/17 08:58:05;;;;;;;16.02;3.47;;;;;;;-144.73;57.05;54231.19;5031421;28;20128;-72
2023/07/17 09:00:31;;;;;;;10.90;3.25;;;;;;;-144.73;58.67;54255.81;5048452;28;20070;-73
2023/07/17 09:02:57;;;;;;;12.35;4.18;;;;;;;-144.73;54.90;54239.41;5030808;28;20056;-72
2023/07/17 09:05:23;;;;;;;5.75;2.90;;;;;;;-144.73;56.26;54247.59;5030691;28;20061;-72
2023/07/17 09:07:48;;;;;;;8.88;3.58;;;;;;;-144.73;57.00;54257.88;5026311;28;20037;-72
2023/07/17 09:10:17;;;;;;;14.48;2.90;;;;;;;-144.73;55.51;54288.66;5060460;28;20083;-73
2023/07/17 09:12:48;;;;;;;10.02;3.00;;;;;;;-144.73;56.18;54200.41;5030813;28;20033;-73
2023/07/17 09:15:15;;;;;;;14.07;3.83;;;;;;;-144.73;57.12;54313.28;5031765;28;20028;-73
2023/07/17 09:17:40;;;;;;;5.35;2.70;;;;;;;-144.73;56.27;54288.66;5031618;28;20052;-73
2023/07/17 09:20:10;;;;;;;6.63;3.05;;;;;;;-144.73;54.84;54237.34;5031218;28;20112;-73
2023/07/17 09:22:38;;;;;;;13.10;3.05;;;;;;;-144.73;56.63;54286.59;5031170;28;20378;-73
2023/07/17 09:25:09;;;;;;;16.23;3.25;;;;;;;-144.73;57.70;54239.41;5040676;28;20040;-73
2023/07/17 09:27:45;;;;;;;7.53;3.20;;;;;;;-144.73;56.91;54247.59;5030423;28;20036;-73
2023/07/17 09:30:13;;;;;;;8.27;2.92;;;;;;;-144.73;57.31;54198.34;5033911;28;20028;-73
2023/07/17 09:32:39;;;;;;;13.43;3.22;;;;;;;-144.73;52.74;54264.03;5034207;28;20036;-72
2023/07/17 09:35:06;;;;;;;6.45;3.08;;;;;;;-144.73;52.59;54292.75;5052572;28;20032;-72
2023/07/17 09:37:33;;;;;;;8.63;3.03;;;;;;;-144.73;49.50;54313.28;5033536;28;20033;-73
2023/07/17 09:39:59;;;;;;;5.93;3.10;;;;;;;-144.73;50.78;54218.88;5033038;28;20503;-73
2023/07/17 09:42:25;;;;;;;12.85;3.00;;;;;;;-144.73;51.74;54245.56;5034009;28;20039;-72
2023/07/17 09:44:52;;;;;;;16.90;3.13;;;;;;;-144.73;51.65;54292.75;5035300;28;20032;-72
2023/07/17 09:47:21;;;;;;;10.75;3.10;;;;;;;-144.73;51.86;54239.41;5035006;28;20467;-72
2023/07/17 09:49:50;;;;;;;13.57;3.42;;;;;;;-144.73;51.19;54268.13;5034967;28;20025;-73
2023/07/17 09:52:16;;;;;;;10.93;3.10;;;;;;;-144.73;50.44;54247.59;5034734;28;20028;-73
2023/07/17 09:54:45;;;;;;;9.02;3.45;;;;;;;-144.73;49.15;54218.88;5034301;28;20025;-73
2023/07/17 09:57:21;;;;;;;14.75;3.33;;;;;;;-144.73;48.04;54231.19;5034595;28;20021;-73
2023/07/17 09:59:48;;;;;;;7.22;3.42;;;;;;;-144.73;49.60;54276.34;5033397;28;20029;-73
2023/07/17 10:02:18;;;;;;;6.68;3.08;;;;;;;-144.73;51.22;54202.44;5061529;28;20025;-73
2023/07/17 10:04:52;;;;;;;8.40;3.08;;;;;;;-144.73;51.34;54222.97;5032454;28;20033;-72
2023/07/17 10:07:19;;;;;;;17.30;4.18;;;;;;;-144.73;50.05;54261.97;5033359;28;20173;-72
2023/07/17 10:09:47;;;;;;;12.13;3.78;;;;;;;-144.73;50.39;54243.50;5050074;28;20029;-72
2023/07/17 10:12:13;;;;;;;18.27;3.80;;;;;;;-144.73;50.76;54231.19;5039211;28;20175;-72
2023/07/17 10:14:39;;;;;;;7.40;3.08;;;;;;;-144.73;47.81;54229.13;5032622;28;20116;-73
2023/07/17 10:17:21;;;;;;;10.30;2.83;;;;;;;-144.73;47.36;54276.34;5066131;28;20506;-72
2023/07/17 10:19:49;;;;;;;14.15;3.42;;;;;;;-144.73;49.15;54282.50;5032861;28;20085;-73
2023/07/17 10:22:45;;;;;;;7.57;2.80;;;;;;;-144.73;47.98;54259.91;5033874;28;20068;-74
2023/07/17 10:25:16;;;;;;;10.70;3.03;;;;;;;-144.73;48.36;54239.41;5048987;28;20049;-74
2023/07/17 10:27:45;;;;;;;11.20;3.55;;;;;;;-144.73;49.09;54309.19;5043025;28;20393;-73
2023/07/17 10:30:48;;;;;;;7.80;2.83;;;;;;;-144.73;47.38;54280.44;5050742;28;20029;-74
2023/07/17 10:33:22;;;;;;;9.90;3.03;;;;;;;-144.73;48.92;54305.06;5038803;28;20041;-73
2023/07/17 10:35:55;;;;;;;14.13;3.72;;;;;;;-144.73;48.03;54243.50;5032171;28;20027;-73
2023/07/17 10:38:33;;;;;;;8.32;3.13;;;;;;;-144.73;48.22;54280.44;5031210;28;20061;-72
2023/07/17 10:41:15;;;;;;;9.48;3.40;;;;;;;-144.73;48.52;54255.81;5031198;28;20032;-73
2023/07/17 10:43:57;;;;;;;5.43;2.80;;;;;;;-144.73;47.45;54286.59;5031277;28;20030;-73
2023/07/17 10:46:39;;;;;;;18.58;3.65;;;;;;;-144.73;48.99;54296.88;5062443;23;20045;-74
2023/07/17 10:49:13;;;;;;;22.30;3.80;;;;;;;-144.73;49.15;54231.19;5046954;28;20067;-73
2023/07/17 10:51:49;;;;;;;7.45;3.17;;;;;;;-144.73;48.45;54243.50;5047683;28;20029;-73
2023/07/17 10:54:19;;;;;;;13.68;3.53;;;;;;;-144.73;47.81;54292.75;5046787;28;20033;-75
2023/07/17 10:56:55;;;;;;;12.70;3.90;;;;;;;-144.73;47.93;54239.41;5048515;28;20075;-73
2023/07/17 10:59:22;;;;;;;12.10;3.90;;;;;;;-144.73;47.79;54268.13;5041551;28;20048;-74
2023/07/17 11:02:11;;;;;;;11.25;3.95;;;;;;;-144.73;49.14;54247.59;5008010;28;20135;-74
2023/07/17 11:04:42;;;;;;;11.32;3.40;;;;;;;-144.73;50.32;54231.19;5048575;28;20048;-73
2023/07/17 11:07:11;;;;;;;12.93;3.95;;;;;;;-144.73;48.95;54247.59;5048872;28;20040;-74